createdAt,value
2017-08-18T00:01:22.592Z,100629.45
2017-08-18T00:03:49.868Z,100627.73
2017-08-18T00:06:17.034Z,100622.91
2017-08-18T00:08:44.201Z,100618.56
2017-08-18T00:11:11.620Z,100616.84
2017-08-18T00:13:38.789Z,100615.53
2017-08-18T00:16:05.979Z,100629.52
2017-08-18T00:18:33.386Z,100623.80
2017-08-18T00:21:01.032Z,100619.94
2017-08-18T00:23:28.293Z,100615.95
2017-08-18T00:25:55.758Z,100608.16
2017-08-18T00:28:23.238Z,100616.89
2017-08-18T00:30:50.668Z,100604.64
2017-08-18T00:33:18.318Z,100597.27
2017-08-18T00:35:45.586Z,100597.77
2017-08-18T00:38:12.768Z,100602.02
2017-08-18T00:40:40.195Z,100602.91
2017-08-18T00:43:07.366Z,100603.94
2017-08-18T00:45:34.551Z,100601.19
2017-08-18T00:48:01.720Z,100596.43
2017-08-18T00:50:29.214Z,100591.53
2017-08-18T00:52:56.758Z,100583.91
2017-08-18T00:55:23.937Z,100582.52
2017-08-18T00:57:51.166Z,100582.39
2017-08-18T01:00:18.617Z,100585.33
2017-08-18T01:02:45.784Z,100569.65
2017-08-18T01:05:13.292Z,100570.72
2017-08-18T01:07:40.472Z,100569.61
2017-08-18T01:10:07.652Z,100571.81
2017-08-18T01:12:35.196Z,100574.02
2017-08-18T01:15:02.447Z,100561.46
2017-08-18T01:17:29.609Z,100560.62
2017-08-18T01:19:56.792Z,100562.83
2017-08-18T01:22:24.285Z,100566.75
2017-08-18T01:24:51.456Z,100557.17
2017-08-18T01:27:18.793Z,100545.45
2017-08-18T01:29:45.962Z,100542.84
2017-08-18T01:32:13.140Z,100546.77
2017-08-18T01:34:40.627Z,100548.55
2017-08-18T01:37:08.023Z,100545.09
2017-08-18T01:39:35.412Z,100553.36
2017-08-18T01:42:02.623Z,100551.64
2017-08-18T01:44:29.790Z,100556.40
2017-08-18T01:46:56.965Z,100554.67
2017-08-18T01:49:24.169Z,100565.20
2017-08-18T01:51:51.533Z,100559.91
2017-08-18T01:54:19.192Z,100564.73
2017-08-18T01:56:46.508Z,100559.97
2017-08-18T01:59:14.026Z,100548.19
2017-08-18T02:01:41.189Z,100544.32
2017-08-18T02:04:08.376Z,100542.95
2017-08-18T02:06:35.659Z,100542.12
2017-08-18T02:09:03.271Z,100554.73
2017-08-18T02:11:30.446Z,100548.19
2017-08-18T02:13:57.807Z,100549.55
2017-08-18T02:16:25.044Z,100553.84
2017-08-18T02:18:52.342Z,100547.77
2017-08-18T02:21:19.789Z,100551.28
2017-08-18T02:23:46.964Z,100555.20
2017-08-18T02:26:14.398Z,100557.83
2017-08-18T02:28:41.568Z,100560.86
2017-08-18T02:31:09.011Z,100554.31
2017-08-18T02:33:36.520Z,100553.90
2017-08-18T02:36:03.915Z,100550.86
2017-08-18T02:38:31.378Z,100556.05
2017-08-18T02:40:58.559Z,100552.65
2017-08-18T02:43:25.974Z,100559.55
2017-08-18T02:45:53.440Z,100554.79
2017-08-18T02:48:20.614Z,100545.21
2017-08-18T02:50:48.044Z,100548.25
2017-08-18T02:53:15.504Z,100553.48
2017-08-18T02:55:42.960Z,100560.44
2017-08-18T02:58:10.616Z,100565.27
2017-08-18T03:00:38.191Z,100569.19
2017-08-18T03:03:05.361Z,100570.50
2017-08-18T03:05:32.521Z,100573.11
2017-08-18T03:07:59.947Z,100577.05
2017-08-18T03:10:27.120Z,100580.13
2017-08-18T03:12:54.543Z,100586.20
2017-08-18T03:15:21.726Z,100580.97
2017-08-18T03:17:49.128Z,100575.31
2017-08-18T03:20:17.057Z,100566.16
2017-08-18T03:22:44.377Z,100564.48
2017-08-18T03:25:11.908Z,100571.92
2017-08-18T03:27:39.401Z,100577.52
2017-08-18T03:30:06.749Z,100553.13
2017-08-18T03:32:34.204Z,100564.84
2017-08-18T03:35:01.855Z,100544.44
2017-08-18T03:37:29.195Z,100530.04
2017-08-18T03:39:56.397Z,100517.78
2017-08-18T03:42:23.727Z,100523.50
2017-08-18T03:44:51.185Z,100529.15
2017-08-18T03:47:18.357Z,100525.64
2017-08-18T03:49:45.857Z,100539.14
2017-08-18T03:52:13.021Z,100535.27
2017-08-18T03:54:40.713Z,100531.82
2017-08-18T03:57:08.162Z,100537.89
2017-08-18T03:59:35.343Z,100540.03
2017-08-18T04:02:03.088Z,100541.76
2017-08-18T04:04:30.736Z,100546.64
2017-08-18T04:06:57.928Z,100549.17
2017-08-18T04:09:25.101Z,100549.09
2017-08-18T04:11:53.115Z,100551.17
2017-08-18T04:14:20.299Z,100551.45
2017-08-18T04:16:47.494Z,100547.88
2017-08-18T04:19:15.285Z,100550.67
2017-08-18T04:21:42.806Z,100549.24
2017-08-18T04:24:09.977Z,100547.87
2017-08-18T04:26:37.392Z,100552.80
2017-08-18T04:29:05.008Z,100548.52
2017-08-18T04:31:32.195Z,100556.84
2017-08-18T04:33:59.362Z,100555.69
2017-08-18T04:36:26.558Z,100568.36
2017-08-18T04:38:53.761Z,100569.73
2017-08-18T04:41:21.273Z,100573.66
2017-08-18T04:43:48.433Z,100578.48
2017-08-18T04:46:15.620Z,100574.61
2017-08-18T04:48:42.811Z,100566.28
2017-08-18T04:51:10.115Z,100568.13
2017-08-18T04:53:37.609Z,100574.19
2017-08-18T04:56:05.100Z,100575.14
2017-08-18T04:58:32.568Z,100578.17
2017-08-18T05:01:00.111Z,100576.39
2017-08-18T05:03:27.292Z,100563.36
2017-08-18T05:05:54.468Z,100563.78
2017-08-18T05:08:22.580Z,100558.95
2017-08-18T05:10:49.759Z,100555.09
2017-08-18T05:13:16.948Z,100554.61
2017-08-18T05:15:44.126Z,100545.87
2017-08-18T05:18:11.555Z,100548.96
2017-08-18T05:20:39.075Z,100541.59
2017-08-18T05:23:06.405Z,100538.48
2017-08-18T05:25:33.587Z,100525.88
2017-08-18T05:28:01.012Z,100535.94
2017-08-18T05:30:28.186Z,100536.77
2017-08-18T05:32:55.364Z,100531.59
2017-08-18T05:35:23.004Z,100547.72
2017-08-18T05:37:50.172Z,100550.75
2017-08-18T05:40:17.351Z,100544.67
2017-08-18T05:42:45.290Z,100554.67
2017-08-18T05:45:12.600Z,100559.02
2017-08-18T05:47:39.765Z,100545.16
2017-08-18T05:50:07.201Z,100516.36
2017-08-18T05:52:34.381Z,100508.45
2017-08-18T05:55:01.554Z,100511.95
2017-08-18T05:57:28.956Z,100517.67
2017-08-18T05:59:56.478Z,100522.01
2017-08-18T06:02:23.659Z,100518.97
2017-08-18T06:04:51.112Z,100511.54
2017-08-18T06:07:18.278Z,100516.36
2017-08-18T06:09:45.697Z,100509.39
2017-08-18T06:12:12.899Z,100512.84
2017-08-18T06:14:40.306Z,100517.67
2017-08-18T06:17:07.493Z,100517.67
2017-08-18T06:19:34.854Z,100528.55
2017-08-18T06:22:02.307Z,100514.63
2017-08-18T06:24:29.478Z,100505.00
2017-08-18T06:26:57.094Z,100509.39
2017-08-18T06:29:24.679Z,100507.67
2017-08-18T06:31:52.139Z,100508.09
2017-08-18T06:34:19.646Z,100503.74
2017-08-18T06:36:46.832Z,100497.26
2017-08-18T06:39:14.381Z,100502.85
2017-08-18T06:41:41.662Z,100508.56
2017-08-18T06:44:08.829Z,100510.29
2017-08-18T06:46:36.260Z,100509.45
2017-08-18T06:49:03.440Z,100505.11
2017-08-18T06:51:30.941Z,100496.78
2017-08-18T06:53:58.435Z,100490.66
2017-08-18T06:56:25.903Z,100486.31
2017-08-18T06:58:53.445Z,100480.72
2017-08-18T07:01:20.609Z,100482.45
2017-08-18T07:03:48.029Z,100482.45
2017-08-18T07:06:15.615Z,100470.25
2017-08-18T07:08:43.065Z,100475.06
2017-08-18T07:11:10.246Z,100472.87
2017-08-18T07:13:37.412Z,100482.45
2017-08-18T07:16:04.585Z,100489.41
2017-08-18T07:18:32.160Z,100502.91
2017-08-18T07:20:59.626Z,100505.05
2017-08-18T07:23:26.889Z,100510.34
2017-08-18T07:25:54.054Z,100514.98
2017-08-18T07:28:21.233Z,100522.75
2017-08-18T07:30:48.643Z,100515.77
2017-08-18T07:33:16.288Z,100520.08
2017-08-18T07:35:44.130Z,100530.26
2017-08-18T07:38:12.024Z,100532.91
2017-08-18T07:40:39.393Z,100535.70
2017-08-18T07:43:06.856Z,100541.47
2017-08-18T07:45:34.041Z,100529.33
2017-08-18T07:48:01.223Z,100535.58
2017-08-18T07:50:28.614Z,100525.08
2017-08-18T07:52:56.086Z,100516.16
2017-08-18T07:55:23.345Z,100509.13
2017-08-18T07:57:52.819Z,100505.14
2017-08-18T08:00:22.388Z,100507.41
2017-08-18T08:02:52.193Z,100510.50
2017-08-18T08:05:22.329Z,100516.69
2017-08-18T08:07:53.723Z,100519.30
2017-08-18T08:10:24.175Z,100520.20
2017-08-18T08:12:54.180Z,100525.02
2017-08-18T08:15:25.413Z,100523.80
2017-08-18T08:17:54.724Z,100521.59
2017-08-18T08:20:24.362Z,100517.82
2017-08-18T08:22:54.158Z,100510.27
2017-08-18T08:25:24.863Z,100512.82
2017-08-18T08:27:54.407Z,100504.49
2017-08-18T08:30:25.402Z,100501.99
2017-08-18T08:32:55.855Z,100494.49
2017-08-18T08:35:25.286Z,100497.05
2017-08-18T08:37:55.038Z,100494.91
2017-08-18T08:40:25.515Z,100497.65
2017-08-18T08:42:55.167Z,100498.06
2017-08-18T08:45:24.974Z,100499.44
2017-08-18T08:47:56.624Z,100495.09
2017-08-18T08:50:27.495Z,100487.71
2017-08-18T08:52:57.345Z,100476.47
2017-08-18T08:55:25.813Z,100472.13
2017-08-18T08:57:53.017Z,100472.66
2017-08-18T09:00:20.616Z,100470.04
2017-08-18T09:02:47.835Z,100470.04
2017-08-18T09:05:15.848Z,100463.59
2017-08-18T09:07:43.058Z,100454.01
2017-08-18T09:10:10.711Z,100453.95
2017-08-18T09:12:38.153Z,100459.72
2017-08-18T09:15:05.751Z,100465.73
2017-08-18T09:17:33.388Z,100472.33
2017-08-18T09:20:00.568Z,100469.30
2017-08-18T09:22:27.813Z,100463.17
2017-08-18T09:24:54.982Z,100463.64
2017-08-18T09:27:22.157Z,100461.86
2017-08-18T09:29:49.883Z,100461.03
2017-08-18T09:32:17.052Z,100457.58
2017-08-18T09:34:44.236Z,100462.34
2017-08-18T09:37:12.628Z,100449.73
2017-08-18T09:39:40.013Z,100446.69
2017-08-18T09:42:07.661Z,100455.38
2017-08-18T09:44:34.902Z,100454.06
2017-08-18T09:47:02.841Z,100446.27
2017-08-18T09:49:30.018Z,100435.33
2017-08-18T09:51:57.186Z,100436.22
2017-08-18T09:54:25.031Z,100431.88
2017-08-18T09:56:52.466Z,100437.11
2017-08-18T09:59:19.735Z,100431.88
2017-08-18T10:01:46.906Z,100426.70
2017-08-18T10:04:14.276Z,100429.26
2017-08-18T10:06:41.732Z,100437.11
2017-08-18T10:09:09.267Z,100441.52
2017-08-18T10:11:36.653Z,100427.53
2017-08-18T10:14:03.825Z,100436.22
2017-08-18T10:16:31.317Z,100439.79
2017-08-18T10:18:58.717Z,100435.39
2017-08-18T10:21:26.477Z,100434.08
2017-08-18T10:23:54.029Z,100434.50
2017-08-18T10:26:21.248Z,100430.56
2017-08-18T10:28:49.190Z,100432.77
2017-08-18T10:31:16.389Z,100436.70
2017-08-18T10:33:43.771Z,100434.44
2017-08-18T10:36:11.220Z,100433.98
2017-08-18T10:38:38.988Z,100428.64
2017-08-18T10:41:06.503Z,100433.40
2017-08-18T10:43:34.021Z,100431.63
2017-08-18T10:46:01.613Z,100428.50
2017-08-18T10:48:29.951Z,100426.64
2017-08-18T10:50:57.421Z,100423.73
2017-08-18T10:53:25.090Z,100427.59
2017-08-18T10:55:52.418Z,100420.29
2017-08-18T10:58:19.950Z,100416.83
2017-08-18T11:00:47.135Z,100423.12
2017-08-18T11:03:14.385Z,100416.31
2017-08-18T11:05:41.552Z,100418.05
2017-08-18T11:08:08.760Z,100415.20
2017-08-18T11:10:35.943Z,100413.63
2017-08-18T11:13:04.560Z,100408.87
2017-08-18T11:15:31.777Z,100408.92
2017-08-18T11:17:58.949Z,100409.41
2017-08-18T11:20:26.121Z,100409.88
2017-08-18T11:22:53.311Z,100405.53
2017-08-18T11:25:20.486Z,100404.70
2017-08-18T11:27:47.657Z,100410.83
2017-08-18T11:30:14.976Z,100411.31
2017-08-18T11:32:42.966Z,100410.48
2017-08-18T11:35:10.170Z,100410.95
2017-08-18T11:37:38.257Z,100405.30
2017-08-18T11:40:05.426Z,100402.20
2017-08-18T11:42:33.188Z,100397.86
2017-08-18T11:45:00.637Z,100399.66
2017-08-18T11:47:28.096Z,100400.13
2017-08-18T11:49:55.739Z,100394.47
2017-08-18T11:52:23.002Z,100398.34
2017-08-18T11:54:50.198Z,100397.03
2017-08-18T11:57:17.618Z,100392.27
2017-08-18T11:59:45.066Z,100387.52
2017-08-18T12:02:12.530Z,100383.17
2017-08-18T12:04:39.990Z,100391.02
2017-08-18T12:07:07.635Z,100384.06
2017-08-18T12:09:35.217Z,100384.48
2017-08-18T12:12:02.407Z,100387.58
2017-08-18T12:14:29.888Z,100384.95
2017-08-18T12:16:57.131Z,100380.64
2017-08-18T12:19:25.593Z,100383.27
2017-08-18T12:21:53.014Z,100377.20
2017-08-18T12:24:20.606Z,100378.92
2017-08-18T12:26:48.337Z,100377.61
2017-08-18T12:29:16.104Z,100390.28
2017-08-18T12:31:43.300Z,100398.55
2017-08-18T12:34:10.484Z,100405.99
2017-08-18T12:36:37.672Z,100373.75
2017-08-18T12:39:05.486Z,100368.52
2017-08-18T12:41:32.978Z,100374.16
2017-08-18T12:44:00.225Z,100371.95
2017-08-18T12:46:27.862Z,100372.44
2017-08-18T12:48:55.454Z,100367.62
2017-08-18T12:51:22.621Z,100360.66
2017-08-18T12:53:49.797Z,100362.38
2017-08-18T12:56:16.961Z,100358.94
2017-08-18T12:58:44.474Z,100350.25
2017-08-18T13:01:11.646Z,100357.62
2017-08-18T13:03:38.810Z,100350.66
2017-08-18T13:06:06.004Z,100345.91
2017-08-18T13:08:33.183Z,100343.70
2017-08-18T13:11:00.359Z,100334.06
2017-08-18T13:13:27.560Z,100335.84
2017-08-18T13:15:55.097Z,100330.20
2017-08-18T13:18:22.265Z,100322.83
2017-08-18T13:20:49.457Z,100318.42
2017-08-18T13:23:16.777Z,100323.23
2017-08-18T13:25:44.290Z,100320.62
2017-08-18T13:28:11.469Z,100330.26
2017-08-18T13:30:38.844Z,100330.67
2017-08-18T13:33:06.494Z,100335.84
2017-08-18T13:35:33.662Z,100342.81
2017-08-18T13:38:00.830Z,100324.55
2017-08-18T13:40:28.056Z,100324.96
2017-08-18T13:42:55.250Z,100325.44
2017-08-18T13:45:22.977Z,100330.67
2017-08-18T13:47:50.172Z,100333.30
2017-08-18T13:50:17.343Z,100336.39
2017-08-18T13:52:44.731Z,100340.73
2017-08-18T13:55:12.185Z,100321.98
2017-08-18T13:57:39.717Z,100315.86
2017-08-18T14:00:07.210Z,100311.94
2017-08-18T14:02:34.556Z,100316.28
2017-08-18T14:05:02.013Z,100307.12
2017-08-18T14:07:29.537Z,100310.63
2017-08-18T14:09:57.004Z,100304.63
2017-08-18T14:12:24.398Z,100305.45
2017-08-18T14:14:51.656Z,100302.66
2017-08-18T14:17:19.180Z,100300.95
2017-08-18T14:19:46.523Z,100298.78
2017-08-18T14:22:14.017Z,100302.30
2017-08-18T14:24:41.558Z,100298.89
2017-08-18T14:27:14.657Z,100296.23
2017-08-18T14:29:42.112Z,100288.20
2017-08-18T14:32:09.759Z,100290.36
2017-08-18T14:34:37.101Z,100291.88
2017-08-18T14:37:04.484Z,100290.70
2017-08-18T14:39:32.012Z,100297.36
2017-08-18T14:41:59.208Z,100294.33
2017-08-18T14:44:26.387Z,100294.39
2017-08-18T14:46:53.704Z,100295.77
2017-08-18T14:49:20.896Z,100303.20
2017-08-18T14:51:48.247Z,100308.86
2017-08-18T14:54:15.457Z,100303.68
2017-08-18T14:56:42.922Z,100308.02
2017-08-18T14:59:10.102Z,100308.91
2017-08-18T15:01:37.592Z,100304.98
2017-08-18T15:04:04.764Z,100311.05
2017-08-18T15:06:32.128Z,100307.19
2017-08-18T15:08:59.585Z,100304.58
2017-08-18T15:11:27.114Z,100305.88
2017-08-18T15:13:54.501Z,100300.70
2017-08-18T15:16:22.147Z,100305.95
2017-08-18T15:18:49.388Z,100304.63
2017-08-18T15:21:17.332Z,100356.52
2017-08-18T15:23:44.636Z,100367.88
2017-08-18T15:26:11.814Z,100362.64
2017-08-18T15:28:39.242Z,100350.45
2017-08-18T15:31:08.482Z,100349.14
2017-08-18T15:33:35.650Z,100356.16
2017-08-18T15:36:02.832Z,100340.96
2017-08-18T15:38:30.479Z,100331.80
2017-08-18T15:40:58.076Z,100329.18
2017-08-18T15:43:25.336Z,100337.52
2017-08-18T15:45:53.318Z,100336.62
2017-08-18T15:48:20.819Z,100331.80
2017-08-18T15:50:48.474Z,100327.88
2017-08-18T15:53:16.428Z,100334.42
2017-08-18T15:55:43.825Z,100343.16
2017-08-18T15:58:11.394Z,100353.16
2017-08-18T16:00:38.665Z,100352.74
2017-08-18T16:03:06.303Z,100341.38
2017-08-18T16:05:33.562Z,100339.23
2017-08-18T16:08:01.330Z,100345.31
2017-08-18T16:10:29.276Z,100341.86
2017-08-18T16:12:57.069Z,100345.84
2017-08-18T16:15:24.320Z,100341.86
2017-08-18T16:17:52.388Z,100340.55
2017-08-18T16:20:19.814Z,100335.37
2017-08-18T16:22:47.753Z,100336.20
2017-08-18T16:25:15.062Z,100336.68
2017-08-18T16:27:42.577Z,100336.62
2017-08-18T16:30:10.220Z,100342.33
2017-08-18T16:32:38.559Z,100338.41
2017-08-18T16:35:06.004Z,100335.37
2017-08-18T16:37:33.178Z,100331.03
2017-08-18T16:40:00.371Z,100333.17
2017-08-18T16:42:27.542Z,100334.06
2017-08-18T16:44:56.036Z,100347.57
2017-08-18T16:47:23.404Z,100346.32
2017-08-18T16:49:51.804Z,100348.87
2017-08-18T16:52:19.021Z,100339.36
2017-08-18T16:54:46.705Z,100347.22
2017-08-18T16:57:14.207Z,100346.32
2017-08-18T16:59:41.614Z,100348.05
2017-08-18T17:02:09.144Z,100343.28
2017-08-18T17:04:36.332Z,100334.12
2017-08-18T17:07:03.525Z,100337.16
2017-08-18T17:09:30.896Z,100345.48
2017-08-18T17:11:58.074Z,100341.98
2017-08-18T17:14:25.503Z,100345.08
2017-08-18T17:16:52.668Z,100347.69
2017-08-18T17:19:20.040Z,100349.48
2017-08-18T17:21:47.505Z,100349.00
2017-08-18T17:24:15.154Z,100349.89
2017-08-18T17:26:43.265Z,100345.91
2017-08-18T17:29:11.236Z,100358.58
2017-08-18T17:31:38.650Z,100357.69
2017-08-18T17:34:06.194Z,100354.61
2017-08-18T17:36:33.476Z,100343.61
2017-08-18T17:39:00.828Z,100329.20
2017-08-18T17:41:28.076Z,100336.30
2017-08-18T17:43:55.754Z,100340.88
2017-08-18T17:46:23.156Z,100335.39
2017-08-18T17:48:50.321Z,100338.30
2017-08-18T17:51:17.600Z,100344.92
2017-08-18T17:53:45.049Z,100347.30
2017-08-18T17:56:12.512Z,100359.80
2017-08-18T17:58:39.710Z,100363.52
2017-08-18T18:01:06.877Z,100364.89
2017-08-18T18:03:34.270Z,100355.80
2017-08-18T18:06:01.796Z,100354.96
2017-08-18T18:08:29.312Z,100360.67
2017-08-18T18:10:56.829Z,100357.16
2017-08-18T18:13:24.014Z,100354.19
2017-08-18T18:15:51.315Z,100359.84
2017-08-18T18:18:18.807Z,100352.47
2017-08-18T18:20:45.977Z,100355.14
2017-08-18T18:23:13.392Z,100357.77
2017-08-18T18:25:40.584Z,100357.34
2017-08-18T18:28:07.930Z,100360.44
2017-08-18T18:30:35.293Z,100363.06
2017-08-18T18:33:02.585Z,100361.75
2017-08-18T18:35:30.106Z,100361.81
2017-08-18T18:37:57.454Z,100361.34
2017-08-18T18:40:24.986Z,100358.78
2017-08-18T18:42:52.358Z,100356.58
2017-08-18T18:45:19.818Z,100367.05
2017-08-18T18:47:46.990Z,100370.08
2017-08-18T18:50:14.736Z,100374.48
2017-08-18T18:52:41.948Z,100368.77
2017-08-18T18:55:09.444Z,100362.70
2017-08-18T18:57:36.984Z,100370.08
2017-08-18T19:00:04.226Z,100372.28
2017-08-18T19:02:31.771Z,100386.27
2017-08-18T19:04:59.363Z,100396.35
2017-08-18T19:07:26.624Z,100401.59
2017-08-18T19:09:54.193Z,100399.36
2017-08-18T19:12:21.541Z,100396.35
2017-08-18T19:14:48.932Z,100393.32
2017-08-18T19:17:16.150Z,100392.02
2017-08-18T19:19:43.664Z,100400.28
2017-08-18T19:22:11.182Z,100388.50
2017-08-18T19:24:38.602Z,100405.99
2017-08-18T19:27:05.972Z,100411.64
2017-08-18T19:29:33.432Z,100413.84
2017-08-18T19:32:00.881Z,100412.95
2017-08-18T19:34:28.075Z,100424.73
2017-08-18T19:36:55.250Z,100426.52
2017-08-18T19:39:22.658Z,100426.52
2017-08-18T19:41:50.301Z,100433.06
2017-08-18T19:44:17.491Z,100435.62
2017-08-18T19:46:44.672Z,100432.17
2017-08-18T19:49:12.788Z,100427.41
2017-08-18T19:51:41.492Z,100442.70
2017-08-18T19:54:08.760Z,100430.03
2017-08-18T19:56:36.185Z,100447.05
2017-08-18T19:59:03.373Z,100437.88
2017-08-18T20:01:30.559Z,100446.22
2017-08-18T20:03:57.758Z,100448.83
2017-08-18T20:06:24.966Z,100449.25
2017-08-18T20:08:52.152Z,100444.48
2017-08-18T20:11:19.336Z,100445.32
2017-08-18T20:13:46.528Z,100450.14
2017-08-18T20:16:13.709Z,100455.38
2017-08-18T20:18:40.892Z,100446.69
2017-08-18T20:21:08.088Z,100463.17
2017-08-18T20:23:35.295Z,100470.67
2017-08-18T20:26:02.480Z,100473.70
2017-08-18T20:28:29.655Z,100486.79
2017-08-18T20:30:56.849Z,100495.53
2017-08-18T20:33:24.103Z,100478.58
2017-08-18T20:35:51.293Z,100489.83
2017-08-18T20:38:18.506Z,100485.06
2017-08-18T20:40:45.678Z,100485.95
2017-08-18T20:43:12.878Z,100491.61
2017-08-18T20:45:40.060Z,100486.85
2017-08-18T20:48:07.240Z,100484.23
2017-08-18T20:50:34.441Z,100482.03
2017-08-18T20:53:01.646Z,100485.95
2017-08-18T20:55:28.832Z,100496.02
2017-08-18T20:57:56.016Z,100489.11
2017-08-18T21:00:23.205Z,100491.40
2017-08-18T21:02:50.405Z,100493.01
2017-08-18T21:05:17.812Z,100493.57
2017-08-18T21:07:44.996Z,100495.95
2017-08-18T21:10:12.158Z,100503.45
2017-08-18T21:12:39.574Z,100504.52
2017-08-18T21:15:07.038Z,100497.73
2017-08-18T21:17:34.209Z,100493.12
2017-08-18T21:20:01.632Z,100496.98
2017-08-18T21:22:29.284Z,100501.03
2017-08-18T21:24:56.477Z,100506.71
2017-08-18T21:27:24.323Z,100504.33
2017-08-18T21:29:51.503Z,100496.70
2017-08-18T21:32:19.104Z,100506.95
2017-08-18T21:34:46.415Z,100503.95
2017-08-18T21:37:13.590Z,100503.62
2017-08-18T21:39:40.990Z,100503.00
2017-08-18T21:42:08.185Z,100501.39
2017-08-18T21:44:35.905Z,100509.38
2017-08-18T21:47:03.670Z,100514.61
2017-08-18T21:49:30.849Z,100522.52
2017-08-18T21:51:58.335Z,100519.55
2017-08-18T21:54:25.554Z,100520.02
2017-08-18T21:56:53.003Z,100524.36
2017-08-18T21:59:20.708Z,100518.71
2017-08-18T22:01:48.187Z,100523.59
2017-08-18T22:04:15.704Z,100530.55
2017-08-18T22:06:43.169Z,100528.35
2017-08-18T22:09:10.785Z,100524.06
2017-08-18T22:11:38.232Z,100532.75
2017-08-18T22:14:05.690Z,100527.58
2017-08-18T22:16:33.154Z,100534.12
2017-08-18T22:19:00.344Z,100525.85
2017-08-18T22:21:27.764Z,100527.63
2017-08-18T22:23:54.944Z,100523.70
2017-08-18T22:26:22.561Z,100529.87
2017-08-18T22:28:49.730Z,100527.25
2017-08-18T22:31:16.911Z,100528.47
2017-08-18T22:33:44.122Z,100532.88
2017-08-18T22:36:13.412Z,100536.41
2017-08-18T22:38:41.145Z,100534.27
2017-08-18T22:41:09.876Z,100526.89
2017-08-18T22:43:37.408Z,100527.25
2017-08-18T22:46:04.787Z,100538.61
2017-08-18T22:48:32.168Z,100537.78
2017-08-18T22:50:59.399Z,100541.23
2017-08-18T22:53:27.713Z,100547.78
2017-08-18T22:55:55.692Z,100549.56
2017-08-18T22:58:24.188Z,100553.48
2017-08-18T23:00:52.503Z,100545.22
2017-08-18T23:03:20.372Z,100542.19
2017-08-18T23:05:47.568Z,100556.58
2017-08-18T23:08:14.753Z,100550.93
2017-08-18T23:10:42.121Z,100557.47
2017-08-18T23:13:09.764Z,100562.65
2017-08-18T23:15:36.930Z,100561.82
2017-08-18T23:18:04.101Z,100562.71
2017-08-18T23:20:31.492Z,100567.53
2017-08-18T23:22:58.676Z,100566.64
2017-08-18T23:25:26.677Z,100566.69
2017-08-18T23:27:54.022Z,100577.17
2017-08-18T23:30:21.208Z,100578.48
2017-08-18T23:32:48.627Z,100580.20
2017-08-18T23:35:16.087Z,100579.78
2017-08-18T23:37:43.744Z,100580.68
2017-08-18T23:40:11.309Z,100581.51
2017-08-18T23:42:38.823Z,100575.44
2017-08-18T23:45:06.449Z,100585.02
2017-08-18T23:47:33.678Z,100587.64
2017-08-18T23:50:01.134Z,100587.64
2017-08-18T23:52:28.306Z,100586.33
2017-08-18T23:54:55.493Z,100587.70
2017-08-18T23:57:26.286Z,100585.08
2017-08-18T23:59:53.726Z,100595.55
